Time;durP1;ratioP1;P1;durP2;ratioP2;P2;SDS_P1;SDS_P2;PMS_P1;PMS_P2;Temp;Humidity;BMP_temperature;BMP_pressure;BME280_temperature;BME280_humidity;BME280_pressure;Samples;Min_cycle;Max_cycle;Signal;HPM_P1;HPM_P2
2021/04/19 00:01:45;;;;;;;1.50;1.20;;;11.10;94.40;;;;;;5012570;28;20484;-81
2021/04/19 00:04:12;;;;;;;1.50;1.17;;;11.10;94.20;;;;;;5013772;28;20464;-79
2021/04/19 00:06:39;;;;;;;1.50;1.10;;;11.10;94.10;;;;;;5015415;28;20456;-81
2021/04/19 00:09:06;;;;;;;1.50;1.10;;;11.00;94.20;;;;;;5016312;28;20464;-81
2021/04/19 00:11:32;;;;;;;1.50;1.20;;;11.00;94.30;;;;;;5004538;28;20484;-78
2021/04/19 00:13:59;;;;;;;1.50;1.10;;;11.00;94.10;;;;;;5011433;28;20522;-80
2021/04/19 00:16:26;;;;;;;1.50;1.10;;;11.00;94.30;;;;;;5014348;28;20470;-81
2021/04/19 00:18:52;;;;;;;1.50;1.10;;;11.00;94.30;;;;;;5011069;28;20499;-81
2021/04/19 00:21:19;;;;;;;1.50;1.10;;;11.00;94.40;;;;;;5015854;28;20492;-82
2021/04/19 00:23:45;;;;;;;1.50;1.00;;;11.00;95.00;;;;;;5015162;28;20464;-82
2021/04/19 00:26:11;;;;;;;1.43;1.00;;;10.90;94.70;;;;;;5015761;28;20514;-81
2021/04/19 00:28:38;;;;;;;1.50;1.10;;;10.90;94.20;;;;;;5015839;28;20460;-82
2021/04/19 00:31:05;;;;;;;1.50;1.20;;;10.90;94.10;;;;;;5013271;28;20520;-80
2021/04/19 00:33:31;;;;;;;1.50;1.10;;;10.90;94.60;;;;;;5017038;28;20471;-80
2021/04/19 00:35:57;;;;;;;1.50;1.10;;;10.80;94.70;;;;;;5013275;28;20464;-80
2021/04/19 00:38:24;;;;;;;1.50;1.20;;;10.80;94.70;;;;;;5011480;28;20464;-82
2021/04/19 00:40:53;;;;;;;1.50;1.10;;;10.80;95.60;;;;;;5012194;28;20555;-82
2021/04/19 00:43:21;;;;;;;1.50;1.10;;;10.70;95.00;;;;;;5014565;28;20909;-80
2021/04/19 00:45:48;;;;;;;1.50;1.10;;;10.70;95.00;;;;;;5012340;28;20460;-80
2021/04/19 00:48:16;;;;;;;1.50;1.10;;;10.70;95.30;;;;;;5016028;28;20564;-80
2021/04/19 00:50:42;;;;;;;1.50;1.13;;;10.70;95.40;;;;;;5017564;28;20625;-80
2021/04/19 00:53:10;;;;;;;1.50;1.20;;;10.60;95.90;;;;;;5014352;28;20484;-79
2021/04/19 00:55:36;;;;;;;1.50;1.10;;;10.60;95.40;;;;;;5011467;28;20466;-81
2021/04/19 00:58:03;;;;;;;1.50;1.20;;;10.60;95.20;;;;;;5017490;28;20468;-82
2021/04/19 01:00:32;;;;;;;1.50;1.20;;;10.60;95.90;;;;;;5012138;28;20474;-80
2021/04/19 01:02:59;;;;;;;1.50;1.10;;;10.60;96.10;;;;;;5012872;28;20481;-82
2021/04/19 01:05:31;;;;;;;1.50;1.10;;;10.50;95.70;;;;;;4996714;28;20460;-80
2021/04/19 01:07:58;;;;;;;1.50;1.10;;;10.50;95.20;;;;;;5008685;28;20483;-80
2021/04/19 01:10:24;;;;;;;1.50;1.10;;;10.50;95.80;;;;;;5011264;28;21541;-80
2021/04/19 01:12:51;;;;;;;1.50;1.20;;;10.50;96.20;;;;;;5014542;28;20461;-82
2021/04/19 01:15:17;;;;;;;1.50;1.10;;;10.50;95.60;;;;;;5015664;28;20472;-81
2021/04/19 01:17:45;;;;;;;1.50;1.10;;;10.50;95.60;;;;;;5010478;28;20461;-82
2021/04/19 01:20:14;;;;;;;1.50;1.20;;;10.50;95.90;;;;;;5013675;28;20459;-81
2021/04/19 01:22:43;;;;;;;1.50;1.20;;;10.40;96.10;;;;;;5014524;28;20926;-81
2021/04/19 01:25:13;;;;;;;1.50;1.10;;;10.40;95.90;;;;;;5016818;28;20492;-81
2021/04/19 01:27:40;;;;;;;1.50;1.20;;;10.40;96.10;;;;;;5009531;28;20475;-79
2021/04/19 01:30:08;;;;;;;1.50;1.20;;;10.40;96.00;;;;;;5009891;28;20463;-80
2021/04/19 01:32:35;;;;;;;1.50;1.20;;;10.30;96.30;;;;;;5013716;28;20480;-82
2021/04/19 01:35:01;;;;;;;1.47;1.10;;;10.30;96.70;;;;;;5009975;28;20890;-80
2021/04/19 01:37:28;;;;;;;1.50;1.00;;;10.30;96.10;;;;;;5008328;28;20507;-81
2021/04/19 01:39:55;;;;;;;1.50;1.10;;;10.30;96.10;;;;;;5013349;28;20522;-80
2021/04/19 01:42:21;;;;;;;1.50;1.20;;;10.30;96.80;;;;;;5016005;28;20496;-81
2021/04/19 01:44:48;;;;;;;1.50;1.10;;;10.30;96.40;;;;;;5012574;28;20976;-81
2021/04/19 01:47:14;;;;;;;1.50;1.10;;;10.30;96.40;;;;;;5013318;28;20463;-81
2021/04/19 01:49:41;;;;;;;1.50;1.20;;;10.30;96.40;;;;;;5008140;28;20460;-80
2021/04/19 01:52:08;;;;;;;1.50;1.07;;;10.30;96.40;;;;;;5013181;28;20480;-82
2021/04/19 01:54:34;;;;;;;1.50;1.10;;;10.20;96.20;;;;;;5009308;28;21102;-79
2021/04/19 01:57:02;;;;;;;1.50;1.10;;;10.20;96.40;;;;;;5014387;28;20499;-79
2021/04/19 01:59:30;;;;;;;1.50;1.10;;;10.20;96.70;;;;;;5013616;28;20804;-82
2021/04/19 02:02:02;;;;;;;1.50;1.10;;;10.20;96.80;;;;;;5008730;28;20479;-81
2021/04/19 02:04:40;;;;;;;1.50;1.10;;;10.20;96.60;;;;;;5010413;28;20484;-81
2021/04/19 02:07:12;;;;;;;1.50;1.10;;;10.20;96.80;;;;;;5008167;28;20464;-79
2021/04/19 02:09:47;;;;;;;1.47;1.10;;;10.20;96.40;;;;;;5009618;28;20465;-80
2021/04/19 02:12:21;;;;;;;1.50;1.20;;;10.20;96.60;;;;;;5004207;28;20933;-79
2021/04/19 02:14:52;;;;;;;1.50;1.20;;;10.20;96.90;;;;;;5003724;28;20539;-79
2021/04/19 02:17:28;;;;;;;1.50;1.13;;;10.10;96.70;;;;;;5012368;28;20544;-79
2021/04/19 02:20:01;;;;;;;1.50;1.10;;;10.10;96.90;;;;;;5007645;28;20471;-79
2021/04/19 02:22:31;;;;;;;1.47;1.10;;;10.10;96.70;;;;;;5010656;28;20491;-79
2021/04/19 02:25:05;;;;;;;1.50;1.10;;;10.10;97.10;;;;;;5008178;28;20479;-79
2021/04/19 02:27:37;;;;;;;1.50;1.20;;;10.10;97.20;;;;;;5012564;28;20464;-79
2021/04/19 02:30:08;;;;;;;1.60;1.43;;;10.00;96.80;;;;;;5007780;28;20468;-80
2021/04/19 02:32:38;;;;;;;1.50;1.10;;;10.00;97.10;;;;;;5003010;28;20670;-78
2021/04/19 02:35:09;;;;;;;1.50;1.20;;;10.00;97.10;;;;;;5008201;28;20468;-79
2021/04/19 02:37:38;;;;;;;1.50;1.17;;;10.00;97.10;;;;;;5011543;28;20517;-80
2021/04/19 02:40:07;;;;;;;1.50;1.30;;;10.00;97.10;;;;;;5007551;28;20852;-80
2021/04/19 02:42:38;;;;;;;1.50;1.20;;;10.00;96.80;;;;;;5004629;28;20492;-81
2021/04/19 02:45:07;;;;;;;1.50;1.20;;;10.00;96.90;;;;;;5009590;28;20499;-79
2021/04/19 02:47:34;;;;;;;1.50;1.17;;;10.00;97.20;;;;;;5005421;28;20467;-81
2021/04/19 02:50:01;;;;;;;1.50;1.20;;;9.90;96.90;;;;;;5006677;28;20464;-80
2021/04/19 02:52:28;;;;;;;1.50;1.10;;;9.90;96.60;;;;;;5008694;28;20476;-80
2021/04/19 02:54:55;;;;;;;1.50;1.20;;;9.90;97.20;;;;;;5011562;28;20471;-80
2021/04/19 02:57:25;;;;;;;1.50;1.10;;;9.90;96.80;;;;;;4999957;28;20688;-79
2021/04/19 02:59:54;;;;;;;1.50;1.10;;;9.90;97.10;;;;;;5006582;28;20460;-80
2021/04/19 03:02:25;;;;;;;1.50;1.30;;;9.90;96.90;;;;;;5010435;28;20983;-80
2021/04/19 03:04:52;;;;;;;1.50;1.10;;;9.90;96.90;;;;;;5003799;28;20559;-79
2021/04/19 03:07:21;;;;;;;1.50;1.10;;;9.90;97.10;;;;;;5007561;28;20491;-80
2021/04/19 03:09:51;;;;;;;1.50;1.10;;;9.80;97.20;;;;;;5001212;28;20518;-80
2021/04/19 03:12:22;;;;;;;1.50;1.10;;;9.80;97.00;;;;;;5007250;28;20468;-80
2021/04/19 03:14:51;;;;;;;1.50;1.20;;;9.80;97.40;;;;;;5011734;28;20460;-80
2021/04/19 03:17:23;;;;;;;1.50;1.10;;;9.80;97.30;;;;;;5003005;28;20547;-80
2021/04/19 03:20:00;;;;;;;1.50;1.10;;;9.80;96.90;;;;;;5004071;28;20472;-79
2021/04/19 03:22:28;;;;;;;1.50;1.10;;;9.80;97.10;;;;;;5001405;28;20492;-79
2021/04/19 03:24:56;;;;;;;1.50;1.20;;;9.80;97.20;;;;;;5010466;28;20851;-79
2021/04/19 03:27:24;;;;;;;1.50;1.20;;;9.80;97.10;;;;;;5015293;28;20774;-79
2021/04/19 03:29:50;;;;;;;1.50;1.10;;;9.70;97.30;;;;;;5007342;28;20959;-79
2021/04/19 03:32:24;;;;;;;1.50;1.10;;;9.70;97.00;;;;;;5017752;28;20544;-80
2021/04/19 03:34:51;;;;;;;1.50;1.10;;;9.70;97.00;;;;;;5022860;28;20468;-79
2021/04/19 03:37:23;;;;;;;1.50;1.10;;;9.70;98.20;;;;;;5017557;28;20483;-79
2021/04/19 03:39:54;;;;;;;1.50;1.20;;;9.70;98.20;;;;;;5001423;28;20469;-78
2021/04/19 03:42:22;;;;;;;1.50;1.10;;;9.60;98.20;;;;;;5007532;28;20913;-78
2021/04/19 03:44:49;;;;;;;1.50;1.03;;;9.60;98.20;;;;;;5005538;28;20479;-78
2021/04/19 03:47:18;;;;;;;1.50;1.10;;;9.50;98.20;;;;;;5009870;28;20468;-77
2021/04/19 03:49:50;;;;;;;1.50;1.10;;;9.50;98.20;;;;;;5010806;28;20456;-78
2021/04/19 03:52:23;;;;;;;1.50;1.20;;;9.50;98.20;;;;;;5005378;28;20559;-76
2021/04/19 03:54:52;;;;;;;1.50;1.20;;;9.50;98.20;;;;;;5002708;28;20465;-77
2021/04/19 03:57:22;;;;;;;1.50;1.20;;;9.40;98.20;;;;;;5005415;28;20474;-75
2021/04/19 03:59:51;;;;;;;1.50;1.20;;;9.40;98.20;;;;;;5001441;28;20470;-75
2021/04/19 04:02:19;;;;;;;1.50;1.10;;;9.40;98.20;;;;;;5004073;28;20488;-75
2021/04/19 04:04:46;;;;;;;1.50;1.10;;;9.40;98.20;;;;;;5004483;28;20829;-75
2021/04/19 04:07:14;;;;;;;1.50;1.10;;;9.40;98.20;;;;;;5010783;28;20464;-75
2021/04/19 04:09:41;;;;;;;1.50;1.20;;;9.40;98.20;;;;;;5009574;28;20487;-76
2021/04/19 04:12:09;;;;;;;1.50;1.20;;;9.40;98.20;;;;;;5009369;28;20480;-76
2021/04/19 04:14:35;;;;;;;1.50;1.20;;;9.40;98.20;;;;;;5010974;28;20464;-75
2021/04/19 04:17:02;;;;;;;1.50;1.20;;;9.40;98.20;;;;;;5011038;28;20629;-76
2021/04/19 04:19:29;;;;;;;1.50;1.10;;;9.40;98.20;;;;;;5007947;28;20542;-76
2021/04/19 04:21:56;;;;;;;1.50;1.20;;;9.40;98.20;;;;;;5005888;28;20493;-77
2021/04/19 04:24:22;;;;;;;1.50;1.20;;;9.40;98.20;;;;;;5008170;28;20472;-76
2021/04/19 04:26:50;;;;;;;1.50;1.13;;;9.30;98.20;;;;;;5005761;28;20502;-75
2021/04/19 04:29:16;;;;;;;1.50;1.10;;;9.30;98.20;;;;;;5004441;28;20478;-76
2021/04/19 04:31:42;;;;;;;1.50;1.20;;;9.30;98.20;;;;;;5005894;28;20480;-77
2021/04/19 04:34:08;;;;;;;1.50;1.20;;;9.30;98.20;;;;;;5010026;28;20522;-77
2021/04/19 04:36:36;;;;;;;1.50;1.10;;;9.30;98.20;;;;;;5002437;28;20857;-75
2021/04/19 04:39:02;;;;;;;1.50;1.17;;;9.20;98.20;;;;;;5006611;28;20460;-76
2021/04/19 04:41:28;;;;;;;1.50;1.10;;;9.20;98.20;;;;;;5002180;28;20491;-75
2021/04/19 04:43:57;;;;;;;1.50;1.20;;;9.20;98.20;;;;;;5004367;28;20516;-76
2021/04/19 04:46:30;;;;;;;1.50;1.20;;;9.20;98.20;;;;;;5006650;28;20557;-77
2021/04/19 04:49:01;;;;;;;1.50;1.20;;;9.20;98.20;;;;;;5009988;28;20524;-77
2021/04/19 04:51:30;;;;;;;1.50;1.17;;;9.20;98.20;;;;;;5009416;28;20566;-76
2021/04/19 04:54:02;;;;;;;1.50;1.10;;;9.10;98.20;;;;;;5005356;28;20464;-76
2021/04/19 04:56:32;;;;;;;1.50;1.30;;;9.10;98.20;;;;;;4998580;28;20476;-76
2021/04/19 04:58:59;;;;;;;1.50;1.30;;;9.10;98.20;;;;;;5003153;28;20991;-76
2021/04/19 05:01:28;;;;;;;1.50;1.20;;;9.10;98.20;;;;;;5004030;28;20494;-77
2021/04/19 05:03:56;;;;;;;1.50;1.20;;;9.10;98.20;;;;;;4995269;28;21008;-76
2021/04/19 05:06:23;;;;;;;1.50;1.20;;;9.10;98.20;;;;;;5000985;28;20483;-76
2021/04/19 05:08:50;;;;;;;1.50;1.20;;;9.00;98.20;;;;;;5008545;28;20558;-78
2021/04/19 05:11:17;;;;;;;1.53;1.23;;;9.00;98.20;;;;;;5004784;28;20483;-77
2021/04/19 05:13:45;;;;;;;1.50;1.10;;;9.00;98.20;;;;;;5002773;28;20546;-75
2021/04/19 05:16:12;;;;;;;1.50;1.20;;;9.00;98.20;;;;;;5009518;28;20491;-75
2021/04/19 05:18:39;;;;;;;1.50;1.27;;;9.00;98.20;;;;;;5009771;28;20476;-75
2021/04/19 05:21:05;;;;;;;1.50;1.13;;;9.00;98.20;;;;;;5007232;28;20496;-75
2021/04/19 05:23:32;;;;;;;1.50;1.30;;;9.00;98.20;;;;;;5005285;28;20856;-75
2021/04/19 05:25:59;;;;;;;1.50;1.30;;;9.00;98.20;;;;;;5010300;28;20467;-76
2021/04/19 05:28:27;;;;;;;1.50;1.17;;;9.00;98.20;;;;;;5009539;28;20939;-77
2021/04/19 05:30:53;;;;;;;1.50;1.20;;;9.00;98.20;;;;;;5004064;28;20921;-76
2021/04/19 05:33:20;;;;;;;1.50;1.20;;;9.00;98.20;;;;;;5004664;28;20468;-76
2021/04/19 05:35:46;;;;;;;1.50;1.20;;;8.90;98.20;;;;;;5006295;28;20993;-76
2021/04/19 05:38:13;;;;;;;1.50;1.20;;;8.90;98.20;;;;;;5009690;28;20479;-75
2021/04/19 05:40:40;;;;;;;1.50;1.20;;;8.90;98.20;;;;;;4999509;28;20499;-76
2021/04/19 05:43:07;;;;;;;5.10;3.43;;;8.90;98.20;;;;;;4997853;28;20488;-76
2021/04/19 05:45:36;;;;;;;1.50;1.20;;;8.90;98.20;;;;;;5007762;28;20851;-75
2021/04/19 05:48:07;;;;;;;1.50;1.10;;;8.90;98.20;;;;;;5005264;28;20876;-76
2021/04/19 05:50:34;;;;;;;1.50;1.10;;;9.00;98.20;;;;;;5001602;28;20901;-75
2021/04/19 05:53:01;;;;;;;1.50;1.20;;;8.90;98.20;;;;;;5004984;28;20468;-76
2021/04/19 05:55:30;;;;;;;1.50;1.20;;;8.80;98.20;;;;;;5007121;28;20549;-74
2021/04/19 05:58:04;;;;;;;1.50;1.20;;;8.80;98.20;;;;;;4999743;28;20473;-76
2021/04/19 06:00:37;;;;;;;1.50;1.20;;;8.80;98.20;;;;;;5007589;28;20471;-76
2021/04/19 06:03:08;;;;;;;1.60;1.30;;;8.70;98.20;;;;;;5009527;28;20491;-76
2021/04/19 06:05:38;;;;;;;1.50;1.10;;;8.80;98.20;;;;;;5000203;28;20464;-76
2021/04/19 06:08:09;;;;;;;1.50;1.10;;;8.80;98.20;;;;;;5005721;28;20468;-76
2021/04/19 06:10:40;;;;;;;1.50;1.10;;;8.80;98.20;;;;;;5000107;28;20526;-76
2021/04/19 06:13:09;;;;;;;2.00;1.80;;;8.80;98.20;;;;;;5003980;28;20464;-76
2021/04/19 06:15:36;;;;;;;1.50;1.10;;;8.80;98.20;;;;;;5002187;28;20588;-76
2021/04/19 06:18:03;;;;;;;1.50;1.20;;;8.80;98.20;;;;;;5007754;28;20471;-76
2021/04/19 06:20:30;;;;;;;1.60;1.40;;;8.80;98.20;;;;;;5007365;28;20459;-77
2021/04/19 06:22:57;;;;;;;1.50;1.17;;;8.80;98.20;;;;;;4998964;28;20791;-76
2021/04/19 06:25:24;;;;;;;1.50;1.20;;;8.80;98.20;;;;;;5000162;28;20456;-76
2021/04/19 06:27:59;;;;;;;1.50;1.20;;;8.80;98.20;;;;;;5006074;28;20862;-75
2021/04/19 06:30:30;;;;;;;1.50;1.20;;;8.90;98.20;;;;;;5001938;28;20762;-75
2021/04/19 06:32:59;;;;;;;1.53;1.30;;;8.90;98.20;;;;;;5000304;28;20481;-77
2021/04/19 06:35:26;;;;;;;1.60;1.30;;;8.90;98.20;;;;;;5003892;28;20509;-77
2021/04/19 06:37:56;;;;;;;1.50;1.20;;;9.00;98.20;;;;;;5006000;28;20473;-77
2021/04/19 06:40:22;;;;;;;1.50;1.20;;;9.00;98.20;;;;;;4997542;28;20460;-76
2021/04/19 06:42:49;;;;;;;1.50;1.20;;;9.00;98.20;;;;;;5002382;28;20901;-76
2021/04/19 06:45:16;;;;;;;1.50;1.10;;;9.00;98.20;;;;;;4997339;28;20556;-77
2021/04/19 06:47:43;;;;;;;1.50;1.17;;;9.00;98.20;;;;;;5002120;28;20487;-77
2021/04/19 06:50:12;;;;;;;1.50;1.20;;;9.00;98.20;;;;;;5005648;28;20485;-76
2021/04/19 06:52:46;;;;;;;1.50;1.20;;;9.00;98.20;;;;;;4996364;28;20485;-76
2021/04/19 06:55:13;;;;;;;1.50;1.20;;;9.00;98.20;;;;;;4998280;28;20461;-77
2021/04/19 06:57:44;;;;;;;1.50;1.13;;;9.00;98.20;;;;;;5003346;28;20848;-78
2021/04/19 07:00:12;;;;;;;1.50;1.20;;;9.00;98.20;;;;;;5008790;28;20498;-75
2021/04/19 07:02:45;;;;;;;1.50;1.10;;;9.00;98.20;;;;;;5013737;28;20531;-78
2021/04/19 07:05:16;;;;;;;1.50;1.10;;;9.00;98.20;;;;;;5013753;28;20464;-77
2021/04/19 07:07:49;;;;;;;1.50;1.20;;;9.00;98.20;;;;;;5008400;28;20514;-78
2021/04/19 07:10:16;;;;;;;1.50;1.20;;;9.00;98.20;;;;;;5003447;28;20567;-78
2021/04/19 07:12:44;;;;;;;1.50;1.17;;;9.00;98.20;;;;;;5003015;28;20484;-78
2021/04/19 07:15:12;;;;;;;1.50;1.20;;;9.00;98.20;;;;;;5008234;28;20986;-78
2021/04/19 07:17:39;;;;;;;1.50;1.20;;;9.00;98.20;;;;;;5008030;28;20464;-78
2021/04/19 07:20:10;;;;;;;1.50;1.20;;;9.00;98.20;;;;;;5012407;28;20469;-78
2021/04/19 07:22:39;;;;;;;1.50;1.10;;;9.00;98.20;;;;;;5009475;28;20491;-78
2021/04/19 07:25:07;;;;;;;1.50;1.17;;;9.00;98.20;;;;;;5014036;28;20463;-79
2021/04/19 07:27:34;;;;;;;1.50;1.17;;;8.90;98.20;;;;;;5002185;28;20514;-79
2021/04/19 07:30:01;;;;;;;1.50;1.10;;;8.90;98.20;;;;;;5015681;28;20551;-77
2021/04/19 07:32:34;;;;;;;1.60;1.50;;;9.00;98.20;;;;;;5008070;28;20953;-79
2021/04/19 07:35:01;;;;;;;1.50;1.20;;;9.00;98.20;;;;;;5003151;28;20844;-79
2021/04/19 07:37:28;;;;;;;1.50;1.30;;;9.00;98.20;;;;;;5007567;28;20468;-78
2021/04/19 07:39:56;;;;;;;1.50;1.10;;;9.00;98.20;;;;;;5015666;28;20456;-79
2021/04/19 07:42:23;;;;;;;1.50;1.20;;;9.00;98.20;;;;;;5001045;28;20487;-78
2021/04/19 07:44:50;;;;;;;1.50;1.20;;;9.00;98.20;;;;;;5009949;28;20464;-78
2021/04/19 07:47:25;;;;;;;1.50;1.20;;;9.00;98.20;;;;;;5011852;28;20556;-78
2021/04/19 07:49:56;;;;;;;1.50;1.10;;;9.00;98.20;;;;;;5009204;28;20460;-78
2021/04/19 07:52:23;;;;;;;1.50;1.17;;;9.10;98.20;;;;;;5012496;28;20484;-80
2021/04/19 07:55:13;;;;;;;1.50;1.20;;;9.10;98.20;;;;;;5008051;28;20503;-79
2021/04/19 07:57:40;;;;;;;1.50;1.10;;;9.20;98.20;;;;;;5000888;28;20464;-79
2021/04/19 08:00:09;;;;;;;1.50;1.10;;;9.30;98.20;;;;;;5011222;28;20494;-79
2021/04/19 08:02:35;;;;;;;1.50;1.10;;;9.40;98.20;;;;;;5015303;28;20488;-79
2021/04/19 08:05:05;;;;;;;1.50;1.10;;;9.50;98.20;;;;;;5015246;28;20470;-81
2021/04/19 08:07:32;;;;;;;1.50;1.10;;;9.60;98.20;;;;;;5007260;28;20464;-80
2021/04/19 08:10:00;;;;;;;1.50;1.10;;;9.70;98.20;;;;;;5012569;28;20470;-79
2021/04/19 08:12:35;;;;;;;1.50;1.13;;;9.80;98.20;;;;;;5008512;28;20543;-79
2021/04/19 08:15:03;;;;;;;1.50;1.10;;;9.80;98.20;;;;;;5008814;28;20633;-84
2021/04/19 08:17:30;;;;;;;1.50;1.10;;;9.90;98.20;;;;;;4999889;28;20500;-79
2021/04/19 08:19:58;;;;;;;1.50;1.20;;;9.90;98.20;;;;;;5000149;28;20464;-79
2021/04/19 08:22:27;;;;;;;1.50;1.10;;;10.00;98.20;;;;;;5001526;28;20498;-79
2021/04/19 08:25:10;;;;;;;1.50;1.13;;;10.00;98.20;;;;;;5012507;28;20518;-80
2021/04/19 08:27:37;;;;;;;1.53;1.13;;;10.00;98.20;;;;;;5009005;28;20543;-79
2021/04/19 08:30:06;;;;;;;1.50;1.10;;;10.10;98.20;;;;;;4993373;28;20492;-81
2021/04/19 08:32:32;;;;;;;1.50;1.10;;;10.20;98.20;;;;;;5012646;28;20465;-81
2021/04/19 08:35:00;;;;;;;1.50;1.10;;;10.20;98.20;;;;;;5014881;28;20915;-80
2021/04/19 08:37:29;;;;;;;1.50;1.10;;;10.30;98.20;;;;;;5015122;28;20464;-79
2021/04/19 08:39:57;;;;;;;1.50;1.10;;;10.30;98.20;;;;;;5010780;28;20464;-78
2021/04/19 08:42:24;;;;;;;1.50;1.10;;;10.40;98.20;;;;;;5005228;28;20503;-80
2021/04/19 08:44:54;;;;;;;1.53;1.20;;;10.50;98.20;;;;;;5011550;28;20460;-77
2021/04/19 08:47:24;;;;;;;1.50;1.10;;;10.60;98.20;;;;;;5014264;28;20494;-79
2021/04/19 08:49:51;;;;;;;1.50;1.10;;;10.60;98.20;;;;;;5009778;28;20472;-78
2021/04/19 08:52:18;;;;;;;1.53;1.20;;;10.70;98.20;;;;;;5011344;28;20480;-78
2021/04/19 08:54:44;;;;;;;1.50;1.17;;;10.80;98.20;;;;;;5010410;28;20456;-77
2021/04/19 08:57:11;;;;;;;1.50;1.10;;;10.90;98.20;;;;;;5014626;28;20464;-79
2021/04/19 08:59:38;;;;;;;1.50;1.03;;;11.00;98.20;;;;;;5010945;28;20953;-79
2021/04/19 09:02:06;;;;;;;1.50;1.00;;;11.00;98.20;;;;;;5010883;28;20488;-79
2021/04/19 09:04:33;;;;;;;1.50;1.00;;;11.10;98.20;;;;;;5008658;28;20477;-80
2021/04/19 09:06:59;;;;;;;1.60;1.10;;;11.30;98.20;;;;;;5009514;28;20468;-80
2021/04/19 09:09:37;;;;;;;1.50;1.07;;;11.40;98.20;;;;;;5003292;28;20971;-79
2021/04/19 09:12:23;;;;;;;1.50;1.00;;;11.60;98.20;;;;;;5001870;28;21178;-79
2021/04/19 09:14:50;;;;;;;1.50;1.10;;;11.70;98.20;;;;;;5012210;28;20515;-80
2021/04/19 09:17:25;;;;;;;1.50;1.00;;;11.90;98.20;;;;;;5000067;28;20571;-78
2021/04/19 09:19:56;;;;;;;1.50;1.10;;;12.00;98.20;;;;;;5007075;28;20467;-78
2021/04/19 09:22:23;;;;;;;1.50;1.03;;;12.10;98.20;;;;;;5005238;28;21097;-79
2021/04/19 09:25:05;;;;;;;1.50;1.10;;;12.30;98.20;;;;;;5001449;28;20773;-80
2021/04/19 09:27:53;;;;;;;1.50;1.00;;;12.40;98.20;;;;;;5009151;28;20460;-78
2021/04/19 09:30:27;;;;;;;1.50;1.00;;;12.50;98.20;;;;;;5013950;28;20460;-78
2021/04/19 09:33:22;;;;;;;1.53;1.10;;;12.50;98.20;;;;;;5007551;28;20463;-79
2021/04/19 09:35:53;;;;;;;1.50;1.10;;;12.60;98.20;;;;;;5005466;28;20463;-78
2021/04/19 09:38:48;;;;;;;1.50;1.00;;;12.60;98.20;;;;;;5014000;28;20460;-80
2021/04/19 09:41:17;;;;;;;1.50;1.00;;;12.70;98.20;;;;;;5002454;28;20481;-78
2021/04/19 09:43:46;;;;;;;1.50;1.00;;;12.80;98.20;;;;;;5005896;28;20572;-83
2021/04/19 09:46:25;;;;;;;1.60;1.20;;;12.80;98.20;;;;;;5012030;28;20532;-77
2021/04/19 09:49:13;;;;;;;2.00;1.80;;;12.90;98.20;;;;;;5014136;28;20464;-79
2021/04/19 09:51:43;;;;;;;1.50;1.10;;;13.00;98.20;;;;;;4998539;28;20878;-78
2021/04/19 09:54:11;;;;;;;1.50;1.00;;;13.10;98.20;;;;;;5009441;28;20460;-78
2021/04/19 09:56:40;;;;;;;1.50;1.00;;;13.10;97.70;;;;;;5013641;28;20471;-78
2021/04/19 09:59:08;;;;;;;1.50;1.00;;;13.10;97.90;;;;;;5014252;28;20485;-78
2021/04/19 10:01:36;;;;;;;1.50;1.00;;;13.10;98.20;;;;;;5006314;28;20483;-79
2021/04/19 10:04:03;;;;;;;1.50;1.10;;;13.00;97.60;;;;;;5012348;28;20573;-80
2021/04/19 10:06:36;;;;;;;1.50;1.00;;;12.90;97.50;;;;;;5015035;28;20499;-79
2021/04/19 10:09:07;;;;;;;1.50;1.00;;;12.90;98.20;;;;;;5002675;28;20496;-78
2021/04/19 10:11:35;;;;;;;1.50;1.20;;;12.80;98.20;;;;;;5001376;28;20794;-78
2021/04/19 10:14:07;;;;;;;1.50;1.00;;;12.70;98.10;;;;;;5011988;28;20484;-77
2021/04/19 10:16:40;;;;;;;1.50;1.00;;;12.60;97.70;;;;;;5000944;28;20468;-78
2021/04/19 10:19:06;;;;;;;1.50;1.10;;;12.60;98.20;;;;;;5009435;28;20461;-78
2021/04/19 10:21:34;;;;;;;1.50;1.00;;;12.70;98.20;;;;;;5006583;28;20500;-76
2021/04/19 10:24:00;;;;;;;1.60;1.37;;;12.70;98.20;;;;;;5008921;28;20480;-76
2021/04/19 10:26:35;;;;;;;1.50;1.00;;;12.70;98.20;;;;;;4999834;28;20829;-76
2021/04/19 10:29:09;;;;;;;1.50;1.10;;;12.80;98.20;;;;;;4994786;28;20959;-76
2021/04/19 10:31:36;;;;;;;1.50;1.00;;;13.00;98.20;;;;;;5001663;28;20788;-76
2021/04/19 10:34:11;;;;;;;1.50;1.07;;;13.10;98.20;;;;;;5002575;28;20555;-75
2021/04/19 10:36:44;;;;;;;2.10;1.30;;;13.30;98.00;;;;;;5014028;28;20470;-75
2021/04/19 10:39:16;;;;;;;1.50;1.00;;;13.30;98.00;;;;;;5002361;28;20990;-76
2021/04/19 10:41:43;;;;;;;1.50;0.90;;;13.40;98.20;;;;;;5003067;28;20487;-75
2021/04/19 10:44:10;;;;;;;1.50;0.93;;;13.50;97.50;;;;;;5001296;28;20485;-76
2021/04/19 10:46:41;;;;;;;1.50;0.90;;;13.50;97.50;;;;;;5001643;28;20998;-76
2021/04/19 10:49:08;;;;;;;1.50;0.90;;;13.60;97.80;;;;;;4999028;28;20473;-76
2021/04/19 10:51:36;;;;;;;1.50;1.10;;;13.70;97.80;;;;;;5007250;28;20476;-75
2021/04/19 10:54:06;;;;;;;1.50;0.90;;;13.80;96.90;;;;;;5010907;28;20959;-77
2021/04/19 10:56:35;;;;;;;1.50;1.00;;;13.90;96.50;;;;;;5009590;28;20535;-76
2021/04/19 10:59:05;;;;;;;1.50;1.00;;;14.00;96.40;;;;;;5004987;28;20507;-76
2021/04/19 11:01:34;;;;;;;1.50;0.90;;;14.10;96.20;;;;;;5007707;28;20483;-75
2021/04/19 11:04:02;;;;;;;1.50;1.00;;;14.20;95.60;;;;;;5007103;28;20870;-76
2021/04/19 11:06:28;;;;;;;1.50;1.00;;;14.20;95.60;;;;;;5004894;28;20951;-76
2021/04/19 11:08:57;;;;;;;1.60;1.13;;;14.40;94.70;;;;;;5006744;28;20464;-77
2021/04/19 11:11:41;;;;;;;1.50;1.00;;;14.60;95.00;;;;;;5008139;28;20491;-76
2021/04/19 11:14:19;;;;;;;1.50;1.00;;;14.80;94.30;;;;;;5007614;28;20463;-77
2021/04/19 11:16:50;;;;;;;1.50;1.00;;;15.00;94.80;;;;;;5000577;28;20479;-77
2021/04/19 11:19:30;;;;;;;1.50;0.97;;;15.30;93.30;;;;;;5000214;28;20472;-77
2021/04/19 11:21:57;;;;;;;1.50;0.90;;;15.60;92.60;;;;;;4993989;28;20816;-78
2021/04/19 11:24:35;;;;;;;1.50;0.90;;;15.80;91.80;;;;;;4995588;28;20481;-78
2021/04/19 11:27:06;;;;;;;1.50;1.00;;;16.00;90.80;;;;;;4999460;28;20567;-77
2021/04/19 11:29:37;;;;;;;1.50;1.00;;;16.20;90.30;;;;;;5006992;28;20460;-78
2021/04/19 11:32:03;;;;;;;1.50;0.90;;;16.50;90.20;;;;;;5002332;28;20571;-77
2021/04/19 11:34:35;;;;;;;1.53;1.00;;;16.70;88.30;;;;;;5004439;28;20526;-76
2021/04/19 11:37:02;;;;;;;1.50;1.00;;;16.80;88.50;;;;;;5002134;28;21081;-77
2021/04/19 11:39:36;;;;;;;1.50;0.90;;;16.80;88.00;;;;;;5006748;28;20469;-77
2021/04/19 11:42:03;;;;;;;1.50;0.90;;;16.90;86.80;;;;;;4999472;28;20619;-80
2021/04/19 11:44:50;;;;;;;1.50;0.90;;;16.90;86.90;;;;;;5007607;28;21054;-77
2021/04/19 11:47:17;;;;;;;1.50;0.90;;;16.90;86.40;;;;;;5004114;28;20830;-78
2021/04/19 11:49:44;;;;;;;1.50;1.10;;;16.70;86.30;;;;;;5004691;28;20535;-77
2021/04/19 11:52:11;;;;;;;1.50;1.00;;;16.50;87.80;;;;;;5001421;28;20806;-77
2021/04/19 11:54:37;;;;;;;1.50;0.90;;;16.40;87.70;;;;;;5000256;28;20467;-78
2021/04/19 11:57:05;;;;;;;1.50;1.00;;;16.40;88.10;;;;;;5010344;28;20995;-78
2021/04/19 11:59:31;;;;;;;1.50;0.90;;;16.40;88.20;;;;;;5005657;28;20491;-77
2021/04/19 12:02:02;;;;;;;1.50;0.90;;;16.50;86.90;;;;;;5007552;28;20522;-78
2021/04/19 12:04:28;;;;;;;1.50;0.90;;;16.40;87.70;;;;;;5006393;28;20495;-78
2021/04/19 12:06:54;;;;;;;1.50;1.00;;;16.50;87.70;;;;;;5010824;28;20510;-78
2021/04/19 12:09:21;;;;;;;1.50;0.90;;;16.60;88.10;;;;;;5010551;28;20499;-78
2021/04/19 12:11:47;;;;;;;1.50;0.90;;;16.80;88.40;;;;;;5008663;28;20491;-79
2021/04/19 12:14:13;;;;;;;1.50;0.90;;;17.10;86.50;;;;;;4999671;28;20469;-78
2021/04/19 12:16:40;;;;;;;1.50;1.00;;;17.20;85.80;;;;;;5010169;28;21157;-78
2021/04/19 12:19:07;;;;;;;1.50;0.83;;;17.50;86.60;;;;;;5011230;28;20559;-79
2021/04/19 12:21:34;;;;;;;1.50;0.90;;;17.80;85.20;;;;;;5005193;28;20491;-78
2021/04/19 12:24:01;;;;;;;1.80;1.47;;;17.90;84.00;;;;;;5011885;28;20488;-80
2021/04/19 12:26:30;;;;;;;1.50;0.90;;;17.90;84.80;;;;;;5012236;28;20491;-80
2021/04/19 12:28:59;;;;;;;1.50;0.90;;;18.00;83.60;;;;;;5009057;28;20472;-79
2021/04/19 12:31:25;;;;;;;1.50;0.90;;;18.00;84.00;;;;;;5011526;28;21058;-79
2021/04/19 12:33:53;;;;;;;1.50;0.90;;;18.00;82.70;;;;;;5014852;28;20467;-80
2021/04/19 12:36:54;;;;;;;1.50;0.90;;;18.10;83.30;;;;;;5012403;28;20473;-80
2021/04/19 12:39:21;;;;;;;1.50;0.93;;;18.20;82.80;;;;;;5014770;28;20808;-80
2021/04/19 12:41:48;;;;;;;1.50;0.90;;;18.50;84.80;;;;;;5012244;28;20476;-79
2021/04/19 12:44:15;;;;;;;1.50;0.90;;;18.80;83.30;;;;;;5015279;28;20558;-82
2021/04/19 12:46:45;;;;;;;1.50;0.90;;;19.10;82.60;;;;;;5015206;28;20479;-79
2021/04/19 12:49:13;;;;;;;1.50;0.90;;;19.00;80.20;;;;;;5015728;28;20472;-81
2021/04/19 12:51:39;;;;;;;1.77;1.40;;;18.80;81.30;;;;;;5013725;28;20512;-80
2021/04/19 12:54:07;;;;;;;1.50;0.90;;;18.70;80.60;;;;;;5014603;28;20517;-82
2021/04/19 12:56:34;;;;;;;1.87;1.47;;;18.50;80.10;;;;;;5012997;28;21276;-80
2021/04/19 12:59:00;;;;;;;1.50;0.93;;;18.40;81.50;;;;;;5010353;28;20465;-81
2021/04/19 13:01:26;;;;;;;1.50;0.90;;;18.50;82.90;;;;;;5010384;28;20484;-83